Time;durP1;ratioP1;P1;durP2;ratioP2;P2;SDS_P1;SDS_P2;PMS_P1;PMS_P2;Temp;Humidity;BMP_temperature;BMP_pressure;BME280_temperature;BME280_humidity;BME280_pressure;Samples;Min_cycle;Max_cycle;Signal;HPM_P1;HPM_P2
2023/08/31 00:01:10;;;;;;;0.75;0.75;;;;;;;;;;5021669;28;20071;-82
2023/08/31 00:03:36;;;;;;;0.90;0.90;;;;;;;;;;5003053;28;20021;-82
2023/08/31 00:06:03;;;;;;;0.90;0.90;;;;;;;;;;5017733;28;20026;-80
2023/08/31 00:08:30;;;;;;;0.75;0.75;;;;;;;;;;5016687;28;20087;-81
2023/08/31 00:10:57;;;;;;;0.60;0.60;;;;;;;;;;4981504;28;20029;-81
2023/08/31 00:13:24;;;;;;;1.15;1.10;;;;;;;;;;4997434;28;20049;-81
2023/08/31 00:15:50;;;;;;;0.75;0.75;;;;;;;;;;4998308;28;20022;-81
2023/08/31 00:18:16;;;;;;;0.70;0.70;;;;;;;;;;4999061;28;20026;-81
2023/08/31 00:20:42;;;;;;;0.77;0.77;;;;;;;;;;4999316;28;20160;-80
2023/08/31 00:23:09;;;;;;;0.90;0.90;;;;;;;;;;4999711;28;20090;-81
2023/08/31 00:25:35;;;;;;;0.98;0.98;;;;;;;;;;5001277;28;20030;-81
2023/08/31 00:28:04;;;;;;;0.90;0.90;;;;;;;;;;5001610;28;20126;-81
2023/08/31 00:30:31;;;;;;;0.80;0.80;;;;;;;;;;5001539;28;20457;-80
2023/08/31 00:33:00;;;;;;;0.70;0.70;;;;;;;;;;4999310;28;20026;-81
2023/08/31 00:35:27;;;;;;;0.80;0.80;;;;;;;;;;4979894;28;20058;-81
2023/08/31 00:37:58;;;;;;;0.70;0.65;;;;;;;;;;5000403;28;20054;-81
2023/08/31 00:40:24;;;;;;;1.02;1.02;;;;;;;;;;4999128;28;20504;-81
2023/08/31 00:42:51;;;;;;;0.80;0.80;;;;;;;;;;4999102;28;20031;-80
2023/08/31 00:45:17;;;;;;;0.90;0.90;;;;;;;;;;4998203;28;20374;-82
2023/08/31 00:47:44;;;;;;;1.33;1.00;;;;;;;;;;4999369;28;20037;-81
2023/08/31 00:50:10;;;;;;;0.80;0.80;;;;;;;;;;4999446;28;20089;-81
2023/08/31 00:52:37;;;;;;;0.70;0.70;;;;;;;;;;5003770;28;20393;-81
2023/08/31 00:55:07;;;;;;;0.85;0.85;;;;;;;;;;5007312;28;20120;-81
2023/08/31 00:57:33;;;;;;;0.70;0.70;;;;;;;;;;5003090;28;20018;-81
2023/08/31 00:59:59;;;;;;;0.68;0.68;;;;;;;;;;5004708;28;20081;-82
2023/08/31 01:02:31;;;;;;;0.85;0.77;;;;;;;;;;5005618;28;20030;-81
2023/08/31 01:05:16;;;;;;;0.90;0.90;;;;;;;;;;5001825;28;20046;-82
2023/08/31 01:07:45;;;;;;;0.93;0.93;;;;;;;;;;5001469;28;20026;-82
2023/08/31 01:10:15;;;;;;;0.93;0.90;;;;;;;;;;4984909;28;20030;-81
2023/08/31 01:12:44;;;;;;;1.00;1.00;;;;;;;;;;5007770;28;20022;-81
2023/08/31 01:15:15;;;;;;;0.80;0.80;;;;;;;;;;5002034;28;20058;-82
2023/08/31 01:17:45;;;;;;;0.90;0.90;;;;;;;;;;5001410;28;20022;-82
2023/08/31 01:20:11;;;;;;;0.90;0.90;;;;;;;;;;5000827;28;20026;-82
2023/08/31 01:22:44;;;;;;;0.77;0.77;;;;;;;;;;4983542;28;20030;-82
2023/08/31 01:25:10;;;;;;;0.80;0.80;;;;;;;;;;5001254;28;20033;-82
2023/08/31 01:27:37;;;;;;;0.77;0.77;;;;;;;;;;5000585;28;20029;-82
2023/08/31 01:30:04;;;;;;;0.80;0.80;;;;;;;;;;5000367;28;20160;-82
2023/08/31 01:32:30;;;;;;;0.57;0.57;;;;;;;;;;5001125;28;20041;-81
2023/08/31 01:34:57;;;;;;;0.70;0.70;;;;;;;;;;5000263;28;20078;-82
2023/08/31 01:37:42;;;;;;;0.70;0.70;;;;;;;;;;5016510;28;20069;-81
2023/08/31 01:40:14;;;;;;;0.70;0.70;;;;;;;;;;4995197;28;20031;-82
2023/08/31 01:42:42;;;;;;;0.70;0.70;;;;;;;;;;5029502;28;20017;-82
2023/08/31 01:45:09;;;;;;;0.68;0.68;;;;;;;;;;5038665;28;20018;-83
2023/08/31 01:47:36;;;;;;;0.60;0.60;;;;;;;;;;5036600;28;20034;-82
2023/08/31 01:50:02;;;;;;;0.73;0.73;;;;;;;;;;5020986;28;20038;-81
2023/08/31 01:52:28;;;;;;;0.60;0.60;;;;;;;;;;5027315;28;20018;-81
2023/08/31 01:54:54;;;;;;;0.50;0.50;;;;;;;;;;5005228;28;20052;-82
2023/08/31 01:57:20;;;;;;;0.60;0.60;;;;;;;;;;5002802;28;20030;-83
2023/08/31 01:59:46;;;;;;;0.70;0.70;;;;;;;;;;5020451;28;20041;-82
2023/08/31 02:02:12;;;;;;;0.80;0.80;;;;;;;;;;4988653;28;20033;-81
2023/08/31 02:04:38;;;;;;;0.77;0.77;;;;;;;;;;5005240;28;20026;-82
2023/08/31 02:07:04;;;;;;;0.55;0.55;;;;;;;;;;5001099;28;20038;-81
2023/08/31 02:09:30;;;;;;;0.90;0.73;;;;;;;;;;5004303;28;20029;-81
2023/08/31 02:11:56;;;;;;;0.70;0.70;;;;;;;;;;4996777;28;20057;-81
2023/08/31 02:14:23;;;;;;;0.63;0.63;;;;;;;;;;4996346;28;20023;-81
2023/08/31 02:16:49;;;;;;;0.43;0.43;;;;;;;;;;4996006;28;20030;-81
2023/08/31 02:19:15;;;;;;;0.60;0.60;;;;;;;;;;4996883;28;20022;-81
2023/08/31 02:21:41;;;;;;;0.68;0.68;;;;;;;;;;4996833;28;20030;-81
2023/08/31 02:24:07;;;;;;;0.77;0.77;;;;;;;;;;4979536;28;20031;-81
2023/08/31 02:26:37;;;;;;;0.90;0.90;;;;;;;;;;4999388;28;20432;-81
2023/08/31 02:29:03;;;;;;;1.48;1.38;;;;;;;;;;4981883;28;20519;-82
2023/08/31 02:31:29;;;;;;;2.10;1.17;;;;;;;;;;4998676;28;20042;-82
2023/08/31 02:33:55;;;;;;;1.65;1.55;;;;;;;;;;4981626;28;20042;-81
2023/08/31 02:36:21;;;;;;;2.10;1.63;;;;;;;;;;4998186;28;20018;-82
2023/08/31 02:38:49;;;;;;;2.13;1.92;;;;;;;;;;4980819;28;20030;-82
2023/08/31 02:41:16;;;;;;;2.10;1.63;;;;;;;;;;4989828;28;20030;-81
2023/08/31 02:43:42;;;;;;;2.97;2.00;;;;;;;;;;4997482;28;20028;-81
2023/08/31 02:46:08;;;;;;;2.90;2.00;;;;;;;;;;4996313;28;20511;-81
2023/08/31 02:48:34;;;;;;;2.28;1.70;;;;;;;;;;5000348;28;20085;-81
2023/08/31 02:51:02;;;;;;;2.38;1.83;;;;;;;;;;5005284;28;20030;-81
2023/08/31 02:53:28;;;;;;;2.33;1.55;;;;;;;;;;4986457;28;20037;-81
2023/08/31 02:55:54;;;;;;;1.85;1.75;;;;;;;;;;4988840;28;20033;-81
2023/08/31 02:58:20;;;;;;;2.00;1.80;;;;;;;;;;5008259;28;20030;-80
2023/08/31 03:00:48;;;;;;;1.38;1.33;;;;;;;;;;4990293;28;20030;-80
2023/08/31 03:03:17;;;;;;;1.80;1.70;;;;;;;;;;5002135;28;20429;-80
2023/08/31 03:05:44;;;;;;;2.00;1.90;;;;;;;;;;5018257;28;20022;-80
2023/08/31 03:08:10;;;;;;;2.28;2.17;;;;;;;;;;4989505;28;20073;-82
2023/08/31 03:10:37;;;;;;;4.18;2.75;;;;;;;;;;4997079;28;20417;-81
2023/08/31 03:13:03;;;;;;;2.90;2.58;;;;;;;;;;4995972;28;20022;-81
2023/08/31 03:15:29;;;;;;;3.10;2.70;;;;;;;;;;4998023;28;20026;-82
2023/08/31 03:17:55;;;;;;;3.08;2.78;;;;;;;;;;4990797;28;20038;-81
2023/08/31 03:20:21;;;;;;;2.92;2.70;;;;;;;;;;5016970;28;20030;-82
2023/08/31 03:22:47;;;;;;;2.65;2.45;;;;;;;;;;5017443;28;20019;-82
2023/08/31 03:25:14;;;;;;;2.28;2.08;;;;;;;;;;5017760;28;20045;-83
2023/08/31 03:27:41;;;;;;;2.20;2.00;;;;;;;;;;5017361;28;20007;-81
2023/08/31 03:30:08;;;;;;;2.00;1.90;;;;;;;;;;5011424;28;20338;-81
2023/08/31 03:32:34;;;;;;;2.20;2.00;;;;;;;;;;4998576;28;20057;-83
2023/08/31 03:35:02;;;;;;;2.08;1.98;;;;;;;;;;4996327;28;20014;-81
2023/08/31 03:37:29;;;;;;;1.88;1.77;;;;;;;;;;4995799;28;20046;-82
2023/08/31 03:39:55;;;;;;;1.73;1.63;;;;;;;;;;5008939;28;20013;-82
2023/08/31 03:42:21;;;;;;;1.60;1.50;;;;;;;;;;5016865;28;20014;-82
2023/08/31 03:44:47;;;;;;;1.90;1.80;;;;;;;;;;5012891;28;20026;-81
2023/08/31 03:47:13;;;;;;;2.20;2.00;;;;;;;;;;5007938;28;20018;-82
2023/08/31 03:49:39;;;;;;;1.48;1.38;;;;;;;;;;5014381;28;20025;-81
2023/08/31 03:52:05;;;;;;;1.70;1.60;;;;;;;;;;5016281;28;20026;-81
2023/08/31 03:54:31;;;;;;;1.50;1.40;;;;;;;;;;5015799;28;20019;-81
2023/08/31 03:56:57;;;;;;;1.40;1.30;;;;;;;;;;4999599;28;20018;-82
2023/08/31 03:59:23;;;;;;;1.95;1.85;;;;;;;;;;5019027;28;20040;-82
2023/08/31 04:01:49;;;;;;;1.52;1.42;;;;;;;;;;5013474;28;20053;-81
2023/08/31 04:04:15;;;;;;;1.50;1.40;;;;;;;;;;5011325;28;20038;-82
2023/08/31 04:06:45;;;;;;;1.42;1.30;;;;;;;;;;4989103;28;20050;-81
2023/08/31 04:09:11;;;;;;;1.20;1.20;;;;;;;;;;5013254;28;20022;-81
2023/08/31 04:11:37;;;;;;;1.17;1.15;;;;;;;;;;5019935;28;20030;-82
2023/08/31 04:14:03;;;;;;;1.27;1.27;;;;;;;;;;5010774;28;20038;-81
2023/08/31 04:16:29;;;;;;;1.38;1.27;;;;;;;;;;5010193;28;20031;-82
2023/08/31 04:18:56;;;;;;;1.42;1.33;;;;;;;;;;4983843;28;20019;-82
2023/08/31 04:21:22;;;;;;;1.17;1.17;;;;;;;;;;4998839;28;20071;-80
2023/08/31 04:23:48;;;;;;;1.08;1.08;;;;;;;;;;5000740;28;20046;-79
2023/08/31 04:26:14;;;;;;;1.23;1.15;;;;;;;;;;5000531;28;20477;-81
2023/08/31 04:28:43;;;;;;;1.33;1.23;;;;;;;;;;5000498;28;20046;-82
2023/08/31 04:31:10;;;;;;;1.20;1.17;;;;;;;;;;5000944;28;20022;-80
2023/08/31 04:33:39;;;;;;;1.63;1.52;;;;;;;;;;5000850;28;20029;-80
2023/08/31 04:36:05;;;;;;;0.98;0.98;;;;;;;;;;4974977;28;20037;-78
2023/08/31 04:38:32;;;;;;;1.20;1.10;;;;;;;;;;4995217;28;20049;-79
2023/08/31 04:40:59;;;;;;;1.23;1.13;;;;;;;;;;5005526;28;20018;-79
2023/08/31 04:43:25;;;;;;;3.08;1.02;;;;;;;;;;5001081;28;20030;-80
2023/08/31 04:45:54;;;;;;;1.33;1.33;;;;;;;;;;5013714;28;20050;-78
2023/08/31 04:48:21;;;;;;;1.88;1.77;;;;;;;;;;5016131;28;20012;-80
2023/08/31 04:50:47;;;;;;;1.42;1.30;;;;;;;;;;5007766;28;20022;-79
2023/08/31 04:53:13;;;;;;;1.70;1.60;;;;;;;;;;5004305;28;20034;-80
2023/08/31 04:55:40;;;;;;;1.73;1.52;;;;;;;;;;5000874;28;20023;-78
2023/08/31 04:58:06;;;;;;;1.42;1.33;;;;;;;;;;5001334;28;20073;-82
2023/08/31 05:00:32;;;;;;;1.40;1.30;;;;;;;;;;5008235;28;20039;-83
2023/08/31 05:02:58;;;;;;;1.50;1.40;;;;;;;;;;4982203;28;20532;-82
2023/08/31 05:05:24;;;;;;;1.52;1.42;;;;;;;;;;4999223;28;20060;-82
2023/08/31 05:07:50;;;;;;;1.42;1.33;;;;;;;;;;4981945;28;20027;-82
2023/08/31 05:10:16;;;;;;;1.48;1.38;;;;;;;;;;5015018;28;20033;-81
2023/08/31 05:12:42;;;;;;;1.52;1.42;;;;;;;;;;5013053;28;20022;-82
2023/08/31 05:15:09;;;;;;;1.27;1.20;;;;;;;;;;5004102;28;20031;-83
2023/08/31 05:17:35;;;;;;;1.55;1.20;;;;;;;;;;5000970;28;20489;-82
2023/08/31 05:20:04;;;;;;;1.10;1.10;;;;;;;;;;4998721;28;20041;-83
2023/08/31 05:22:30;;;;;;;1.20;1.20;;;;;;;;;;4999260;28;20342;-79
2023/08/31 05:24:56;;;;;;;1.50;1.40;;;;;;;;;;4999404;28;20121;-82
2023/08/31 05:27:22;;;;;;;1.60;1.50;;;;;;;;;;4999264;28;20050;-83
2023/08/31 05:29:49;;;;;;;1.60;1.50;;;;;;;;;;4999888;28;20027;-81
2023/08/31 05:32:15;;;;;;;1.65;1.55;;;;;;;;;;5000235;28;20015;-82
2023/08/31 05:34:41;;;;;;;1.70;1.60;;;;;;;;;;5005095;28;20018;-83
2023/08/31 05:37:07;;;;;;;1.50;1.40;;;;;;;;;;5011435;28;20027;-82
2023/08/31 05:39:33;;;;;;;1.42;1.30;;;;;;;;;;5002526;28;20469;-81
2023/08/31 05:41:59;;;;;;;1.05;1.05;;;;;;;;;;5009299;28;20056;-81
2023/08/31 05:44:25;;;;;;;1.67;1.58;;;;;;;;;;5002931;28;20053;-81
2023/08/31 05:46:51;;;;;;;1.50;1.40;;;;;;;;;;5016367;28;20043;-79
2023/08/31 05:49:17;;;;;;;1.70;1.60;;;;;;;;;;5001233;28;20026;-80
2023/08/31 05:51:44;;;;;;;1.45;1.35;;;;;;;;;;5000998;28;20030;-80
2023/08/31 05:54:13;;;;;;;1.25;1.13;;;;;;;;;;4983469;28;20378;-80
2023/08/31 05:56:40;;;;;;;1.30;1.20;;;;;;;;;;4989605;28;20030;-79
2023/08/31 05:59:07;;;;;;;1.40;1.30;;;;;;;;;;4995167;28;20083;-81
2023/08/31 06:01:33;;;;;;;1.63;1.52;;;;;;;;;;5015219;23;20054;-82
2023/08/31 06:04:03;;;;;;;1.85;1.60;;;;;;;;;;5013171;28;20085;-84
2023/08/31 06:06:29;;;;;;;1.48;1.30;;;;;;;;;;5007822;28;20050;-84
2023/08/31 06:08:56;;;;;;;1.40;1.30;;;;;;;;;;5027784;28;20041;-87
2023/08/31 06:11:22;;;;;;;1.33;1.27;;;;;;;;;;5027310;28;20040;-79
2023/08/31 06:13:48;;;;;;;1.27;1.17;;;;;;;;;;5029948;28;20030;-80
2023/08/31 06:16:14;;;;;;;1.25;1.20;;;;;;;;;;5030942;28;20029;-79
2023/08/31 06:18:40;;;;;;;2.30;1.55;;;;;;;;;;5018058;28;20070;-78
2023/08/31 06:21:06;;;;;;;1.95;1.70;;;;;;;;;;5017623;28;20053;-79
2023/08/31 06:23:32;;;;;;;1.60;1.50;;;;;;;;;;5000878;28;20026;-79
2023/08/31 06:25:58;;;;;;;2.35;2.15;;;;;;;;;;5000551;28;20014;-77
2023/08/31 06:28:25;;;;;;;3.28;1.67;;;;;;;;;;5017539;28;20019;-79
2023/08/31 06:30:51;;;;;;;1.80;1.70;;;;;;;;;;5016955;28;20046;-79
2023/08/31 06:33:43;;;;;;;1.60;1.50;;;;;;;;;;5012005;28;20090;-83
2023/08/31 06:36:09;;;;;;;1.80;1.65;;;;;;;;;;5002839;28;20054;-81
2023/08/31 06:38:35;;;;;;;1.33;1.23;;;;;;;;;;5002646;28;20026;-81
2023/08/31 06:41:02;;;;;;;1.35;1.10;;;;;;;;;;5002357;28;20084;-82
2023/08/31 06:43:28;;;;;;;1.45;1.27;;;;;;;;;;5010140;28;20025;-81
2023/08/31 06:45:55;;;;;;;1.00;1.00;;;;;;;;;;4995798;28;20045;-79
2023/08/31 06:48:21;;;;;;;1.27;1.20;;;;;;;;;;5010283;28;20053;-78
2023/08/31 06:50:47;;;;;;;1.30;1.20;;;;;;;;;;5035715;28;20030;-78
2023/08/31 06:53:13;;;;;;;1.23;1.10;;;;;;;;;;5036399;28;20137;-79
2023/08/31 06:55:39;;;;;;;2.55;1.58;;;;;;;;;;5036610;28;20104;-80
2023/08/31 06:58:06;;;;;;;1.08;1.00;;;;;;;;;;5035118;28;20020;-81
2023/08/31 07:00:32;;;;;;;0.95;0.95;;;;;;;;;;5016469;28;20041;-80
2023/08/31 07:02:58;;;;;;;1.38;1.27;;;;;;;;;;5016125;28;20025;-81
2023/08/31 07:05:26;;;;;;;1.65;1.55;;;;;;;;;;5019138;28;20085;-81
2023/08/31 07:07:55;;;;;;;1.58;1.48;;;;;;;;;;4999831;28;20120;-82
2023/08/31 07:10:22;;;;;;;1.20;1.20;;;;;;;;;;5002313;28;20030;-80
2023/08/31 07:12:48;;;;;;;1.35;1.25;;;;;;;;;;5015860;28;20014;-79
2023/08/31 07:15:14;;;;;;;1.00;1.00;;;;;;;;;;5025526;28;20049;-80
2023/08/31 07:17:40;;;;;;;1.33;1.23;;;;;;;;;;5008180;28;20026;-83
2023/08/31 07:20:07;;;;;;;1.25;1.15;;;;;;;;;;4984983;28;20027;-80
2023/08/31 07:22:34;;;;;;;1.15;1.08;;;;;;;;;;5013012;28;20396;-78
2023/08/31 07:25:00;;;;;;;0.90;0.90;;;;;;;;;;4980938;28;20030;-81
2023/08/31 07:27:26;;;;;;;0.95;0.95;;;;;;;;;;4981933;28;20130;-80
2023/08/31 07:29:57;;;;;;;1.30;1.20;;;;;;;;;;4999394;28;20058;-79
2023/08/31 07:32:23;;;;;;;1.17;1.00;;;;;;;;;;5000940;28;20026;-81
2023/08/31 07:34:49;;;;;;;1.75;1.13;;;;;;;;;;5003653;28;20081;-81
2023/08/31 07:37:18;;;;;;;1.08;1.08;;;;;;;;;;5005655;28;20202;-80
2023/08/31 07:39:45;;;;;;;1.70;1.60;;;;;;;;;;5003179;28;20022;-81
2023/08/31 07:42:12;;;;;;;1.30;1.20;;;;;;;;;;5004476;28;20023;-81
2023/08/31 07:44:38;;;;;;;1.50;1.40;;;;;;;;;;5001154;28;20022;-81
2023/08/31 07:47:05;;;;;;;2.70;1.52;;;;;;;;;;5000009;28;20015;-81
2023/08/31 07:49:31;;;;;;;2.15;1.40;;;;;;;;;;5001698;28;20338;-81
2023/08/31 07:51:57;;;;;;;1.50;1.40;;;;;;;;;;4984825;28;20022;-83
2023/08/31 07:54:23;;;;;;;1.48;1.38;;;;;;;;;;5002466;28;20018;-80
2023/08/31 07:56:49;;;;;;;2.75;2.15;;;;;;;;;;5002263;28;20026;-81
2023/08/31 07:59:17;;;;;;;2.58;1.88;;;;;;;;;;5006865;28;20027;-80
2023/08/31 08:01:43;;;;;;;2.05;1.95;;;;;;;;;;5015164;28;20022;-80
2023/08/31 08:04:09;;;;;;;1.90;1.80;;;;;;;;;;5017626;28;20085;-80
2023/08/31 08:06:35;;;;;;;1.98;1.80;;;;;;;;;;5018798;28;20019;-79
2023/08/31 08:09:02;;;;;;;1.85;1.67;;;;;;;;;;5001286;28;20101;-80
2023/08/31 08:11:28;;;;;;;1.40;1.30;;;;;;;;;;5018789;28;20026;-79
2023/08/31 08:13:54;;;;;;;1.48;1.17;;;;;;;;;;5019265;28;20026;-80
2023/08/31 08:16:20;;;;;;;1.70;1.52;;;;;;;;;;5019232;28;20025;-79
2023/08/31 08:18:46;;;;;;;1.40;1.30;;;;;;;;;;5007377;28;20022;-79
2023/08/31 08:21:12;;;;;;;1.20;1.20;;;;;;;;;;5024130;28;20025;-79
2023/08/31 08:23:38;;;;;;;1.08;1.08;;;;;;;;;;5017444;28;20027;-79
2023/08/31 08:26:04;;;;;;;1.27;1.17;;;;;;;;;;4991162;28;20041;-81
2023/08/31 08:28:30;;;;;;;1.17;1.00;;;;;;;;;;4989317;28;20034;-80
2023/08/31 08:30:56;;;;;;;1.58;1.40;;;;;;;;;;5006819;28;20164;-79
2023/08/31 08:33:23;;;;;;;1.90;1.35;;;;;;;;;;4991538;28;20026;-81
2023/08/31 08:35:50;;;;;;;1.30;1.20;;;;;;;;;;4989080;28;20030;-80
2023/08/31 08:38:20;;;;;;;2.75;1.35;;;;;;;;;;5001081;28;20033;-80
2023/08/31 08:40:55;;;;;;;1.00;0.93;;;;;;;;;;4988216;28;20023;-79
2023/08/31 08:43:25;;;;;;;1.17;0.90;;;;;;;;;;5007298;28;20083;-80
2023/08/31 08:45:51;;;;;;;1.00;1.00;;;;;;;;;;5005003;28;20433;-81
2023/08/31 08:48:18;;;;;;;1.02;0.93;;;;;;;;;;4986001;28;20372;-80
2023/08/31 08:50:45;;;;;;;1.13;1.08;;;;;;;;;;5002916;28;20433;-78
2023/08/31 08:53:13;;;;;;;1.17;1.08;;;;;;;;;;5004080;28;20101;-82
2023/08/31 08:55:39;;;;;;;2.08;1.15;;;;;;;;;;5003549;28;20022;-81
2023/08/31 08:58:05;;;;;;;1.45;1.15;;;;;;;;;;5009895;28;20034;-82
2023/08/31 09:00:32;;;;;;;0.95;0.95;;;;;;;;;;5016810;28;20060;-80
2023/08/31 09:03:03;;;;;;;0.88;0.88;;;;;;;;;;4994978;28;20039;-83
2023/08/31 09:05:40;;;;;;;1.23;1.00;;;;;;;;;;5004504;28;20034;-78
2023/08/31 09:08:10;;;;;;;1.92;1.30;;;;;;;;;;5007349;28;20092;-83
2023/08/31 09:10:36;;;;;;;2.08;1.27;;;;;;;;;;5005520;28;20448;-83
2023/08/31 09:13:06;;;;;;;2.25;1.35;;;;;;;;;;5003047;28;20022;-83
2023/08/31 09:15:42;;;;;;;3.00;1.60;;;;;;;;;;5002950;28;20026;-83
2023/08/31 09:18:08;;;;;;;2.30;1.27;;;;;;;;;;5004962;28;20019;-82
2023/08/31 09:20:47;;;;;;;1.23;1.13;;;;;;;;;;4987116;28;20064;-83
2023/08/31 09:23:14;;;;;;;1.42;1.02;;;;;;;;;;5003877;28;20030;-79
2023/08/31 09:25:44;;;;;;;1.77;1.30;;;;;;;;;;5003230;28;20034;-83
2023/08/31 09:28:10;;;;;;;2.65;1.60;;;;;;;;;;5005050;28;20027;-81
2023/08/31 09:30:37;;;;;;;1.80;1.33;;;;;;;;;;4990183;28;20045;-83
2023/08/31 09:33:23;;;;;;;1.98;1.40;;;;;;;;;;5006540;28;20026;-83
2023/08/31 09:35:56;;;;;;;2.97;1.25;;;;;;;;;;5004915;28;20072;-82
2023/08/31 09:38:22;;;;;;;1.98;1.38;;;;;;;;;;5005336;28;20054;-83
2023/08/31 09:40:48;;;;;;;1.92;1.35;;;;;;;;;;5005313;28;20018;-80
2023/08/31 09:43:21;;;;;;;3.50;1.60;;;;;;;;;;5006481;28;20064;-82
2023/08/31 09:45:48;;;;;;;2.03;1.23;;;;;;;;;;5005694;28;20026;-82
2023/08/31 09:48:16;;;;;;;2.80;1.50;;;;;;;;;;4988291;28;20050;-82
2023/08/31 09:50:44;;;;;;;3.00;1.45;;;;;;;;;;4987213;28;20030;-81
2023/08/31 09:53:10;;;;;;;1.83;1.50;;;;;;;;;;5004447;28;20505;-81
2023/08/31 09:55:39;;;;;;;1.52;1.20;;;;;;;;;;5005394;28;20029;-82
2023/08/31 09:58:06;;;;;;;1.30;1.13;;;;;;;;;;5005739;28;20373;-82
2023/08/31 10:00:32;;;;;;;1.35;1.25;;;;;;;;;;4987658;28;20034;-81
2023/08/31 10:03:03;;;;;;;2.53;1.65;;;;;;;;;;5004708;28;20065;-83
2023/08/31 10:05:29;;;;;;;2.72;1.63;;;;;;;;;;4990368;28;20072;-79
2023/08/31 10:07:56;;;;;;;1.85;1.40;;;;;;;;;;4989704;28;20026;-81
2023/08/31 10:10:26;;;;;;;2.60;1.83;;;;;;;;;;5006891;28;20057;-81
2023/08/31 10:12:53;;;;;;;2.50;1.20;;;;;;;;;;4987563;28;20042;-80
2023/08/31 10:15:20;;;;;;;1.73;1.30;;;;;;;;;;5008045;28;20022;-81
2023/08/31 10:17:46;;;;;;;1.70;1.40;;;;;;;;;;5029720;28;20014;-81
2023/08/31 10:20:14;;;;;;;1.73;1.17;;;;;;;;;;5003543;28;20026;-81
2023/08/31 10:22:40;;;;;;;1.30;1.27;;;;;;;;;;4998605;28;20038;-81
2023/08/31 10:25:06;;;;;;;1.38;1.27;;;;;;;;;;5008040;28;20030;-79
2023/08/31 10:27:40;;;;;;;1.63;1.38;;;;;;;;;;5004630;28;20089;-79
2023/08/31 10:30:15;;;;;;;1.50;1.25;;;;;;;;;;5003522;28;20097;-80
2023/08/31 10:32:41;;;;;;;1.55;1.00;;;;;;;;;;5000204;28;20014;-79
2023/08/31 10:35:10;;;;;;;3.67;1.48;;;;;;;;;;5019118;28;20053;-81
2023/08/31 10:37:36;;;;;;;1.40;1.08;;;;;;;;;;5019718;28;20053;-82
2023/08/31 10:40:11;;;;;;;2.28;1.00;;;;;;;;;;5020635;28;20037;-81
2023/08/31 10:42:47;;;;;;;1.65;1.23;;;;;;;;;;5020984;28;20015;-81
2023/08/31 10:45:14;;;;;;;1.35;1.25;;;;;;;;;;5003091;28;20026;-80
2023/08/31 10:47:42;;;;;;;1.17;1.08;;;;;;;;;;5002565;28;20025;-79
2023/08/31 10:50:19;;;;;;;3.40;1.33;;;;;;;;;;5017404;28;20040;-80
2023/08/31 10:52:45;;;;;;;2.67;1.60;;;;;;;;;;5019313;28;20022;-82
2023/08/31 10:55:12;;;;;;;1.63;1.30;;;;;;;;;;5020358;28;20028;-82
2023/08/31 10:57:39;;;;;;;3.70;1.38;;;;;;;;;;5019400;28;20022;-80
2023/08/31 11:00:06;;;;;;;2.03;1.42;;;;;;;;;;5018594;28;20053;-81
2023/08/31 11:02:36;;;;;;;1.15;1.05;;;;;;;;;;5020305;28;20093;-79
2023/08/31 11:05:03;;;;;;;1.25;1.10;;;;;;;;;;5022686;28;20026;-80
2023/08/31 11:07:29;;;;;;;1.60;1.48;;;;;;;;;;5017691;28;20064;-80
2023/08/31 11:10:09;;;;;;;1.85;1.17;;;;;;;;;;5018475;28;20022;-80
2023/08/31 11:12:35;;;;;;;2.45;1.60;;;;;;;;;;5018635;28;20415;-79
2023/08/31 11:15:01;;;;;;;2.50;1.55;;;;;;;;;;5007898;28;20037;-81
2023/08/31 11:17:27;;;;;;;1.90;1.50;;;;;;;;;;5002399;28;20023;-79
2023/08/31 11:19:54;;;;;;;4.70;1.60;;;;;;;;;;5010642;28;20069;-80
2023/08/31 11:22:20;;;;;;;4.22;1.52;;;;;;;;;;5005345;28;20465;-80
2023/08/31 11:24:49;;;;;;;3.40;1.88;;;;;;;;;;5016124;28;20042;-81
2023/08/31 11:27:20;;;;;;;5.63;2.13;;;;;;;;;;4991653;28;20030;-82
2023/08/31 11:29:46;;;;;;;4.00;1.90;;;;;;;;;;5001626;28;20126;-82
2023/08/31 11:32:12;;;;;;;2.42;1.40;;;;;;;;;;4990952;28;20167;-80
2023/08/31 11:34:42;;;;;;;1.63;1.50;;;;;;;;;;4987415;28;20026;-81
2023/08/31 11:37:09;;;;;;;3.65;1.67;;;;;;;;;;4983847;28;20022;-81
2023/08/31 11:39:35;;;;;;;2.17;1.80;;;;;;;;;;5001505;28;20053;-82
2023/08/31 11:42:01;;;;;;;2.58;1.48;;;;;;;;;;5001347;28;20126;-83
2023/08/31 11:44:27;;;;;;;1.52;1.30;;;;;;;;;;5001695;28;20030;-81
2023/08/31 11:46:54;;;;;;;3.72;2.08;;;;;;;;;;5000908;28;20082;-81
2023/08/31 11:49:20;;;;;;;2.13;1.40;;;;;;;;;;4999101;28;20066;-80
2023/08/31 11:51:47;;;;;;;2.45;1.40;;;;;;;;;;5001794;28;20026;-80
2023/08/31 11:54:14;;;;;;;3.70;1.55;;;;;;;;;;5010690;28;20034;-78
2023/08/31 11:56:46;;;;;;;2.97;1.58;;;;;;;;;;5010433;28;20120;-79
2023/08/31 11:59:12;;;;;;;2.50;1.50;;;;;;;;;;5011295;28;20582;-79
2023/08/31 12:01:43;;;;;;;4.78;2.10;;;;;;;;;;5003122;28;20050;-81
2023/08/31 12:04:20;;;;;;;3.42;1.88;;;;;;;;;;4998885;28;20038;-81
2023/08/31 12:06:56;;;;;;;8.40;2.40;;;;;;;;;;4981209;28;20062;-78
2023/08/31 12:09:22;;;;;;;4.38;2.10;;;;;;;;;;5006555;28;20429;-80
2023/08/31 12:11:52;;;;;;;3.50;2.58;;;;;;;;;;4989226;28;20031;-78
2023/08/31 12:14:24;;;;;;;2.30;1.73;;;;;;;;;;4986770;28;20027;-82
2023/08/31 12:16:51;;;;;;;3.05;2.15;;;;;;;;;;4998180;28;20046;-79
2023/08/31 12:19:18;;;;;;;5.13;2.13;;;;;;;;;;4999789;28;20185;-82
2023/08/31 12:21:45;;;;;;;3.40;1.73;;;;;;;;;;4983933;28;20070;-81
2023/08/31 12:24:11;;;;;;;2.03;1.77;;;;;;;;;;5000935;28;20026;-80
2023/08/31 12:26:38;;;;;;;2.35;1.50;;;;;;;;;;5000480;28;20030;-80
2023/08/31 12:29:04;;;;;;;5.25;1.77;;;;;;;;;;4983933;28;20022;-81
2023/08/31 12:31:31;;;;;;;2.72;1.85;;;;;;;;;;5001099;28;20030;-81
2023/08/31 12:33:58;;;;;;;3.13;1.52;;;;;;;;;;5003880;28;20033;-81
2023/08/31 12:36:24;;;;;;;2.38;1.30;;;;;;;;;;5007866;28;20057;-80
2023/08/31 12:38:50;;;;;;;1.75;1.17;;;;;;;;;;5016158;28;20098;-79
2023/08/31 12:41:17;;;;;;;2.35;1.58;;;;;;;;;;4992020;28;20085;-82
2023/08/31 12:43:44;;;;;;;3.10;1.60;;;;;;;;;;5004278;28;20026;-79
2023/08/31 12:46:13;;;;;;;3.67;1.65;;;;;;;;;;5008305;28;20053;-79
2023/08/31 12:48:39;;;;;;;2.55;2.00;;;;;;;;;;5002844;28;20018;-79
2023/08/31 12:51:05;;;;;;;1.80;1.52;;;;;;;;;;4982652;28;20497;-78
2023/08/31 12:53:31;;;;;;;2.17;1.75;;;;;;;;;;5004939;28;20014;-79
2023/08/31 12:55:57;;;;;;;2.25;1.52;;;;;;;;;;4984768;28;20109;-80
2023/08/31 12:58:24;;;;;;;3.15;1.85;;;;;;;;;;5007118;28;20023;-78
2023/08/31 13:00:53;;;;;;;3.83;1.70;;;;;;;;;;5006010;28;20030;-78
2023/08/31 13:03:19;;;;;;;2.42;1.67;;;;;;;;;;4989084;28;20045;-78
2023/08/31 13:05:46;;;;;;;2.03;1.10;;;;;;;;;;5007533;28;20033;-79
2023/08/31 13:08:12;;;;;;;1.65;1.55;;;;;;;;;;4989693;28;20080;-80
2023/08/31 13:10:38;;;;;;;4.60;2.00;;;;;;;;;;5012752;28;20030;-81
2023/08/31 13:13:04;;;;;;;4.53;2.10;;;;;;;;;;5009090;28;20030;-79
2023/08/31 13:15:33;;;;;;;2.08;1.85;;;;;;;;;;5002227;28;20103;-80
2023/08/31 13:17:59;;;;;;;4.90;1.83;;;;;;;;;;5002591;28;20097;-80
2023/08/31 13:20:25;;;;;;;2.35;1.52;;;;;;;;;;4983630;28;20561;-79
2023/08/31 13:22:51;;;;;;;3.97;1.98;;;;;;;;;;4984701;28;20102;-80
2023/08/31 13:25:17;;;;;;;3.97;2.28;;;;;;;;;;5003256;28;20031;-80
2023/08/31 13:27:44;;;;;;;3.95;1.65;;;;;;;;;;4984240;28;20034;-80
2023/08/31 13:30:12;;;;;;;4.05;2.15;;;;;;;;;;5004779;28;20460;-79
2023/08/31 13:32:38;;;;;;;3.03;2.00;;;;;;;;;;5000027;28;20049;-80
2023/08/31 13:35:07;;;;;;;4.28;2.13;;;;;;;;;;5001788;28;20022;-80
2023/08/31 13:37:34;;;;;;;1.98;1.25;;;;;;;;;;5002115;28;20033;-80
2023/08/31 13:40:12;;;;;;;3.60;1.83;;;;;;;;;;4986861;28;20405;-82
2023/08/31 13:42:49;;;;;;;2.97;1.88;;;;;;;;;;4988449;28;20029;-79
2023/08/31 13:45:15;;;;;;;2.55;1.60;;;;;;;;;;5011528;28;20130;-82
2023/08/31 13:47:46;;;;;;;3.60;2.08;;;;;;;;;;4994911;28;20041;-79
2023/08/31 13:50:13;;;;;;;2.00;1.48;;;;;;;;;;5009942;28;20033;-83
2023/08/31 13:52:39;;;;;;;2.92;1.67;;;;;;;;;;4982911;28;20033;-82
2023/08/31 13:55:05;;;;;;;3.30;1.83;;;;;;;;;;5005720;28;20041;-81
2023/08/31 13:57:31;;;;;;;3.67;1.67;;;;;;;;;;4997692;28;20030;-80
2023/08/31 13:59:57;;;;;;;2.95;1.95;;;;;;;;;;4997356;28;20035;-79
2023/08/31 14:02:23;;;;;;;3.13;1.90;;;;;;;;;;5003174;28;20053;-82
2023/08/31 14:04:50;;;;;;;1.95;1.70;;;;;;;;;;5001659;28;20366;-82
2023/08/31 14:07:16;;;;;;;1.67;1.15;;;;;;;;;;5001549;28;20107;-82
2023/08/31 14:09:42;;;;;;;2.15;1.67;;;;;;;;;;5001176;28;20025;-82
2023/08/31 14:12:08;;;;;;;2.65;1.73;;;;;;;;;;5002799;28;20038;-82
2023/08/31 14:14:35;;;;;;;3.25;1.85;;;;;;;;;;5001026;28;20037;-82
2023/08/31 14:17:02;;;;;;;1.65;1.50;;;;;;;;;;5000565;28;20069;-81
2023/08/31 14:19:28;;;;;;;3.97;2.10;;;;;;;;;;5001743;28;20105;-81
2023/08/31 14:21:54;;;;;;;1.65;1.23;;;;;;;;;;5001638;28;20054;-81
2023/08/31 14:24:20;;;;;;;2.33;1.33;;;;;;;;;;4984317;28;20375;-82
2023/08/31 14:26:46;;;;;;;1.58;1.33;;;;;;;;;;5001366;28;20102;-82
2023/08/31 14:29:12;;;;;;;3.47;1.83;;;;;;;;;;5001365;28;20034;-84
2023/08/31 14:31:39;;;;;;;6.70;1.70;;;;;;;;;;4984336;28;20453;-84
2023/08/31 14:34:05;;;;;;;2.45;1.48;;;;;;;;;;4999521;28;20074;-81
2023/08/31 14:36:31;;;;;;;4.93;1.95;;;;;;;;;;4985469;28;20026;-83
2023/08/31 14:38:57;;;;;;;3.28;1.65;;;;;;;;;;5014870;28;20042;-82
2023/08/31 14:41:23;;;;;;;1.73;1.40;;;;;;;;;;5006628;28;20027;-82
2023/08/31 14:43:49;;;;;;;2.42;1.48;;;;;;;;;;5002886;28;20015;-83